Weather at Frankfort-Highland Airport

Public forecast

Using degrees Fahrenheit for public forecast. Weather courtesy of forecast.io.

Closest aviation weather report (METAR) to Frankfort-Highland Airport

Report is more than 6 hours old.

Closest report is Griffiss International Airport, 16.5 nm (30.5 km) NW.

2022/11/14 14:53 (retrieved 2 years ago)

KRME 141453Z 32013KT 10SM OVC049 01/M06 A3036 RMK AO2 SLP283 T00111061 51018

Closest aviation forecast (TAF) to Frankfort-Highland Airport

Forecast is more than 12 hours old.

Closest forecast is Griffiss International Airport, 16.5 nm (30.5 km) NW.

2023/02/22 20:33 Ammendment (retrieved 1 year ago)

TAF AMD KRME 221931Z 2220/2318 15004KT P6SM OVC035 TEMPO 2221/2222 4SM -SHSN BR OVC015 FM222200 09008KT 1SM -SN BR OVC015 FM230000 10013KT 1/2SM SN OVC007 FM230300 10008KT 4SM -FZRA BR OVC008 FM231000 10008KT P6SM OVC008